createdAt,value
2019-02-14T00:00:17.548Z,32.50
2019-02-14T00:01:17.516Z,29.00
2019-02-14T00:02:17.532Z,29.20
2019-02-14T00:03:17.494Z,29.10
2019-02-14T00:04:17.484Z,27.60
2019-02-14T00:05:17.487Z,34.80
2019-02-14T00:06:17.520Z,29.10
2019-02-14T00:07:17.522Z,32.80
2019-02-14T00:08:17.445Z,28.30
2019-02-14T00:09:17.430Z,32.00
2019-02-14T00:10:17.418Z,34.40
2019-02-14T00:11:17.410Z,30.80
2019-02-14T00:12:17.401Z,32.40
2019-02-14T00:13:17.413Z,33.40
2019-02-14T00:14:17.377Z,36.80
2019-02-14T00:15:17.385Z,31.10
2019-02-14T00:16:17.363Z,24.00
2019-02-14T00:17:17.350Z,33.70
2019-02-14T00:18:17.373Z,31.20
2019-02-14T00:19:17.323Z,32.70
2019-02-14T00:20:17.313Z,30.90
2019-02-14T00:21:17.364Z,30.50
2019-02-14T00:22:17.299Z,33.00
2019-02-14T00:23:17.318Z,29.20
2019-02-14T00:24:17.273Z,31.10
2019-02-14T00:25:17.258Z,30.60
2019-02-14T00:26:17.244Z,31.50
2019-02-14T00:27:17.239Z,28.30
2019-02-14T00:28:17.385Z,28.40
2019-02-14T00:29:17.211Z,33.20
2019-02-14T00:30:17.252Z,31.10
2019-02-14T00:31:17.189Z,27.70
2019-02-14T00:32:17.178Z,29.50
2019-02-14T00:33:17.185Z,30.10
2019-02-14T00:34:17.168Z,28.90
2019-02-14T00:35:24.857Z,38.20
2019-02-14T00:36:18.146Z,30.40
2019-02-14T00:37:17.124Z,37.00
2019-02-14T00:38:17.131Z,32.70
2019-02-14T00:39:17.106Z,29.50
2019-02-14T00:40:17.099Z,26.20
2019-02-14T00:41:17.097Z,33.00
2019-02-14T00:42:17.070Z,30.10
2019-02-14T00:43:17.075Z,27.20
2019-02-14T00:44:17.048Z,35.30
2019-02-14T00:45:17.039Z,29.80
2019-02-14T00:46:17.031Z,27.90
2019-02-14T00:47:17.017Z,29.50
2019-02-14T00:48:17.019Z,28.10
2019-02-14T00:49:17.063Z,29.50
2019-02-14T00:50:16.985Z,33.90
2019-02-14T00:51:16.979Z,26.30
2019-02-14T00:52:16.963Z,31.60
2019-02-14T00:53:17.004Z,30.70
2019-02-14T00:54:16.942Z,29.70
2019-02-14T00:55:16.932Z,32.30
2019-02-14T00:56:16.970Z,32.30
2019-02-14T00:57:16.916Z,35.70
2019-02-14T00:58:16.917Z,32.20
2019-02-14T00:59:16.887Z,32.40
2019-02-14T01:00:16.877Z,35.30
2019-02-14T01:01:16.894Z,31.90
2019-02-14T01:02:16.858Z,31.10
2019-02-14T01:03:16.865Z,32.40
2019-02-14T01:04:16.836Z,31.80
2019-02-14T01:05:16.824Z,32.70
2019-02-14T01:06:16.813Z,27.90
2019-02-14T01:07:16.807Z,30.80
2019-02-14T01:08:16.810Z,31.50
2019-02-14T01:09:16.787Z,32.20
2019-02-14T01:10:16.771Z,34.40
2019-02-14T01:11:16.758Z,30.20
2019-02-14T01:12:16.750Z,30.20
2019-02-14T01:13:16.747Z,30.00
2019-02-14T01:14:16.728Z,33.90
2019-02-14T01:15:16.716Z,30.80
2019-02-14T01:16:16.707Z,33.30
2019-02-14T01:17:16.715Z,31.50
2019-02-14T01:18:16.701Z,30.40
2019-02-14T01:19:16.672Z,30.60
2019-02-14T01:20:16.662Z,34.50
2019-02-14T01:21:16.658Z,31.30
2019-02-14T01:22:16.649Z,31.10
2019-02-14T01:23:16.643Z,29.70
2019-02-14T01:24:16.622Z,33.00
2019-02-14T01:25:16.609Z,37.20
2019-02-14T01:26:16.596Z,32.70
2019-02-14T01:27:16.587Z,29.50
2019-02-14T01:28:16.630Z,31.10
2019-02-14T01:29:16.565Z,31.90
2019-02-14T01:30:16.562Z,34.10
2019-02-14T01:31:16.556Z,27.40
2019-02-14T01:32:16.549Z,32.00
2019-02-14T01:33:16.557Z,32.30
2019-02-14T01:34:16.518Z,36.50
2019-02-14T01:35:16.502Z,34.40
2019-02-14T01:36:16.497Z,34.70
2019-02-14T01:37:16.491Z,33.40
2019-02-14T01:38:16.481Z,33.70
2019-02-14T01:39:16.466Z,32.10
2019-02-14T01:40:16.449Z,31.30
2019-02-14T01:41:16.438Z,31.70
2019-02-14T01:42:16.431Z,31.20
2019-02-14T01:43:16.451Z,33.50
2019-02-14T01:44:16.425Z,32.60
2019-02-14T01:45:16.396Z,33.40
2019-02-14T01:46:16.431Z,39.60
2019-02-14T01:47:16.373Z,33.80
2019-02-14T01:48:16.376Z,33.70
2019-02-14T01:49:16.361Z,34.10
2019-02-14T01:50:16.361Z,38.20
2019-02-14T01:51:16.330Z,35.10
2019-02-14T01:52:16.322Z,37.20
2019-02-14T01:53:16.309Z,37.90
2019-02-14T01:54:16.438Z,37.10
2019-02-14T01:55:16.287Z,39.10
2019-02-14T01:56:16.275Z,40.10
2019-02-14T01:57:16.312Z,32.00
2019-02-14T01:58:16.273Z,34.20
2019-02-14T01:59:16.250Z,34.30
2019-02-14T02:00:16.234Z,35.20
2019-02-14T02:01:16.226Z,34.80
2019-02-14T02:02:16.212Z,33.00
2019-02-14T02:03:16.203Z,36.20
2019-02-14T02:04:16.198Z,30.80
2019-02-14T02:05:16.182Z,41.50
2019-02-14T02:06:16.180Z,37.80
2019-02-14T02:07:16.158Z,34.20
2019-02-14T02:08:16.167Z,34.20
2019-02-14T02:09:16.162Z,30.00
2019-02-14T02:10:16.127Z,29.60
2019-02-14T02:11:16.120Z,32.10
2019-02-14T02:12:16.126Z,33.20
2019-02-14T02:13:16.140Z,36.30
2019-02-14T02:14:16.096Z,31.50
2019-02-14T02:15:16.079Z,32.70
2019-02-14T02:16:16.067Z,32.40
2019-02-14T02:17:16.067Z,36.60
2019-02-14T02:18:16.040Z,35.70
2019-02-14T02:19:16.056Z,33.40
2019-02-14T02:20:16.028Z,37.10
2019-02-14T02:21:16.008Z,34.90
2019-02-14T02:22:16.004Z,35.30
2019-02-14T02:23:15.990Z,31.70
2019-02-14T02:24:16.001Z,34.20
2019-02-14T02:25:15.979Z,36.10
2019-02-14T02:26:15.957Z,33.80
2019-02-14T02:27:15.980Z,32.30
2019-02-14T02:28:15.936Z,33.10
2019-02-14T02:29:15.929Z,36.30
2019-02-14T02:30:15.915Z,36.80
2019-02-14T02:31:15.910Z,39.00
2019-02-14T02:32:15.898Z,33.20
2019-02-14T02:33:15.886Z,35.20
2019-02-14T02:34:15.937Z,36.50
2019-02-14T02:35:15.858Z,35.10
2019-02-14T02:36:15.851Z,33.20
2019-02-14T02:37:15.839Z,34.30
2019-02-14T02:38:15.827Z,35.50
2019-02-14T02:39:15.829Z,36.00
2019-02-14T02:40:15.809Z,33.90
2019-02-14T02:41:15.810Z,37.00
2019-02-14T02:42:15.784Z,32.30
2019-02-14T02:43:15.792Z,34.00
2019-02-14T02:44:15.775Z,33.80
2019-02-14T02:45:15.765Z,35.90
2019-02-14T02:46:19.613Z,37.50
2019-02-14T02:47:15.737Z,42.20
2019-02-14T02:48:15.800Z,35.80
2019-02-14T02:49:15.723Z,35.60
2019-02-14T02:50:15.713Z,31.70
2019-02-14T02:51:15.696Z,32.70
2019-02-14T02:52:15.699Z,33.40
2019-02-14T02:53:15.667Z,42.50
2019-02-14T02:54:15.687Z,31.20
2019-02-14T02:55:15.660Z,34.70
2019-02-14T02:56:15.648Z,36.20
2019-02-14T02:57:15.627Z,32.20
2019-02-14T02:58:15.631Z,39.20
2019-02-14T02:59:15.614Z,35.20
2019-02-14T03:00:15.599Z,33.60
2019-02-14T03:01:15.587Z,43.20
2019-02-14T03:02:15.576Z,40.80
2019-02-14T03:03:15.558Z,34.80
2019-02-14T03:04:15.599Z,31.50
2019-02-14T03:05:15.558Z,35.50
2019-02-14T03:06:15.530Z,38.10
2019-02-14T03:07:15.522Z,35.50
2019-02-14T03:08:15.511Z,33.60
2019-02-14T03:09:15.511Z,32.70
2019-02-14T03:10:15.498Z,33.60
2019-02-14T03:11:15.476Z,36.10
2019-02-14T03:12:15.465Z,37.80
2019-02-14T03:13:15.454Z,36.00
2019-02-14T03:14:15.473Z,38.30
2019-02-14T03:15:15.432Z,34.20
2019-02-14T03:16:15.429Z,38.40
2019-02-14T03:17:15.411Z,37.00
2019-02-14T03:18:15.400Z,37.20
2019-02-14T03:19:15.392Z,33.10
2019-02-14T03:20:15.395Z,33.90
2019-02-14T03:21:15.372Z,35.60
2019-02-14T03:22:15.358Z,36.90
2019-02-14T03:23:15.354Z,35.60
2019-02-14T03:24:15.335Z,35.90
2019-02-14T03:25:15.414Z,34.00
2019-02-14T03:26:15.319Z,34.30
2019-02-14T03:27:15.302Z,34.10
2019-02-14T03:28:15.293Z,38.50
2019-02-14T03:29:15.281Z,39.30
2019-02-14T03:30:15.281Z,39.00
2019-02-14T03:31:15.300Z,36.60
2019-02-14T03:32:15.265Z,37.10
2019-02-14T03:33:15.243Z,37.40
2019-02-14T03:34:15.239Z,35.40
2019-02-14T03:35:15.223Z,40.80
2019-02-14T03:36:19.019Z,36.40
2019-02-14T03:37:15.195Z,39.20
2019-02-14T03:38:15.184Z,39.70
2019-02-14T03:39:15.173Z,33.70
2019-02-14T03:40:15.169Z,34.80
2019-02-14T03:41:15.163Z,33.20
2019-02-14T03:42:15.154Z,34.70
2019-02-14T03:43:15.139Z,34.10
2019-02-14T03:44:15.121Z,39.20
2019-02-14T03:45:15.112Z,38.30
2019-02-14T03:46:15.097Z,42.10
2019-02-14T03:47:15.087Z,29.20
2019-02-14T03:48:15.081Z,35.00
2019-02-14T03:49:15.073Z,36.90
2019-02-14T03:50:15.073Z,40.90
2019-02-14T03:51:15.044Z,34.90
2019-02-14T03:52:15.050Z,38.00
2019-02-14T03:53:15.025Z,36.90
2019-02-14T03:54:15.018Z,32.30
2019-02-14T03:55:15.008Z,33.90
2019-02-14T03:56:14.991Z,37.90
2019-02-14T03:57:14.988Z,38.00
2019-02-14T03:58:14.973Z,38.50
2019-02-14T03:59:14.967Z,35.10
2019-02-14T04:00:14.952Z,31.90
2019-02-14T04:01:14.952Z,37.70
2019-02-14T04:02:14.931Z,32.60
2019-02-14T04:03:14.914Z,33.40
2019-02-14T04:04:14.903Z,31.50
2019-02-14T04:05:14.895Z,37.80
2019-02-14T04:06:14.885Z,32.10
2019-02-14T04:07:14.876Z,35.50
2019-02-14T04:08:14.859Z,35.40
2019-02-14T04:09:14.876Z,37.20
2019-02-14T04:10:14.844Z,34.30
2019-02-14T04:11:14.829Z,31.70
2019-02-14T04:12:14.816Z,35.20
2019-02-14T04:13:14.805Z,40.60
2019-02-14T04:14:14.949Z,33.20
2019-02-14T04:15:14.792Z,35.50
2019-02-14T04:16:14.783Z,31.90
2019-02-14T04:17:14.765Z,40.60
2019-02-14T04:18:14.759Z,37.80
2019-02-14T04:19:14.743Z,39.60
2019-02-14T04:20:14.740Z,34.10
2019-02-14T04:21:14.747Z,40.40
2019-02-14T04:22:14.708Z,34.50
2019-02-14T04:23:14.701Z,33.30
2019-02-14T04:24:14.699Z,34.90
2019-02-14T04:25:14.687Z,36.60
2019-02-14T04:26:14.666Z,36.60
2019-02-14T04:27:14.666Z,32.40
2019-02-14T04:28:14.657Z,37.00
2019-02-14T04:29:14.636Z,35.10
2019-02-14T04:30:14.626Z,39.40
2019-02-14T04:31:14.617Z,35.00
2019-02-14T04:32:14.605Z,35.30
2019-02-14T04:33:14.619Z,41.60
2019-02-14T04:34:14.582Z,33.20
2019-02-14T04:35:14.583Z,35.70
2019-02-14T04:36:14.557Z,36.60
2019-02-14T04:37:14.550Z,34.40
2019-02-14T04:38:14.538Z,34.20
2019-02-14T04:39:14.525Z,35.10
2019-02-14T04:40:14.520Z,36.60
2019-02-14T04:41:14.511Z,37.20
2019-02-14T04:42:15.141Z,37.30
2019-02-14T04:43:14.487Z,32.30
2019-02-14T04:44:14.478Z,31.50
2019-02-14T04:45:14.486Z,37.00
2019-02-14T04:46:14.454Z,34.40
2019-02-14T04:47:14.447Z,35.70
2019-02-14T04:48:14.432Z,39.40
2019-02-14T04:49:14.422Z,33.70
2019-02-14T04:50:14.423Z,35.80
2019-02-14T04:51:14.410Z,30.90
2019-02-14T04:52:14.386Z,35.90
2019-02-14T04:53:14.407Z,34.80
2019-02-14T04:54:14.390Z,35.80
2019-02-14T04:55:14.374Z,33.20
2019-02-14T04:56:14.343Z,31.90
2019-02-14T04:57:14.452Z,29.40
2019-02-14T04:58:14.327Z,32.80
2019-02-14T04:59:14.313Z,36.30
2019-02-14T05:00:14.312Z,32.60
2019-02-14T05:01:14.297Z,29.10
2019-02-14T05:02:14.303Z,28.10
2019-02-14T05:03:14.279Z,33.50
2019-02-14T05:04:14.293Z,28.90
2019-02-14T05:05:14.266Z,34.50
2019-02-14T05:06:14.236Z,28.90
2019-02-14T05:07:14.232Z,32.60
2019-02-14T05:08:14.232Z,32.60
2019-02-14T05:09:14.220Z,35.60
2019-02-14T05:10:14.218Z,33.80
2019-02-14T05:11:14.181Z,31.10
2019-02-14T05:12:14.172Z,36.90
2019-02-14T05:13:14.164Z,30.20
2019-02-14T05:14:14.153Z,32.50
2019-02-14T05:15:14.160Z,31.90
2019-02-14T05:16:14.131Z,35.00
2019-02-14T05:17:14.123Z,42.90
2019-02-14T05:18:14.110Z,37.80
2019-02-14T05:19:14.104Z,33.70
2019-02-14T05:20:14.113Z,30.00
2019-02-14T05:21:14.079Z,33.80
2019-02-14T05:22:14.062Z,31.30
2019-02-14T05:23:14.056Z,36.90
2019-02-14T05:24:14.043Z,35.50
2019-02-14T05:25:14.043Z,33.50
2019-02-14T05:26:14.038Z,32.60
2019-02-14T05:27:14.009Z,29.70
2019-02-14T05:28:13.998Z,34.70
2019-02-14T05:29:13.987Z,32.70
2019-02-14T05:30:13.984Z,33.80
2019-02-14T05:31:13.980Z,36.90
2019-02-14T05:32:13.955Z,36.90
2019-02-14T05:33:14.005Z,30.60
2019-02-14T05:34:13.935Z,36.50
2019-02-14T05:35:13.936Z,34.80
2019-02-14T05:36:13.927Z,33.30
2019-02-14T05:37:13.922Z,35.10
2019-02-14T05:38:13.890Z,28.90
2019-02-14T05:39:13.880Z,31.80
2019-02-14T05:40:13.954Z,33.60
2019-02-14T05:41:13.866Z,32.90
2019-02-14T05:42:13.850Z,34.80
2019-02-14T05:43:13.844Z,33.80
2019-02-14T05:44:13.826Z,34.50
2019-02-14T05:45:13.822Z,32.20
2019-02-14T05:46:13.822Z,39.50
2019-02-14T05:47:13.794Z,33.30
2019-02-14T05:48:13.783Z,36.70
2019-02-14T05:49:13.786Z,34.70
2019-02-14T05:50:13.766Z,35.00
2019-02-14T05:51:13.761Z,39.50
2019-02-14T05:52:13.738Z,39.60
2019-02-14T05:53:13.729Z,37.40
2019-02-14T05:54:13.734Z,31.80
2019-02-14T05:55:13.711Z,29.60
2019-02-14T05:56:13.711Z,39.50
2019-02-14T05:57:13.687Z,33.10
2019-02-14T05:58:13.682Z,37.70
2019-02-14T05:59:13.684Z,40.50
2019-02-14T06:00:13.670Z,33.50
2019-02-14T06:01:13.658Z,35.60
2019-02-14T06:02:13.631Z,34.30
2019-02-14T06:03:13.618Z,34.50
2019-02-14T06:04:13.608Z,38.10
2019-02-14T06:05:13.600Z,37.00
2019-02-14T06:06:13.596Z,35.70
2019-02-14T06:07:13.576Z,41.00
2019-02-14T06:08:13.567Z,35.20
2019-02-14T06:09:13.556Z,37.20
2019-02-14T06:10:13.543Z,40.60
2019-02-14T06:11:13.573Z,37.80
2019-02-14T06:12:13.521Z,37.70
2019-02-14T06:13:13.515Z,43.00
2019-02-14T06:14:13.511Z,40.70
2019-02-14T06:15:13.506Z,48.10
2019-02-14T06:16:13.492Z,37.40
2019-02-14T06:17:13.477Z,38.80
2019-02-14T06:18:13.503Z,36.10
2019-02-14T06:19:13.446Z,35.80
2019-02-14T06:20:13.439Z,43.20
2019-02-14T06:21:13.434Z,41.00
2019-02-14T06:22:13.414Z,41.90
2019-02-14T06:23:13.405Z,42.40
2019-02-14T06:24:13.405Z,39.40
2019-02-14T06:25:13.382Z,41.50
2019-02-14T06:26:13.382Z,40.60
2019-02-14T06:27:13.359Z,38.50
2019-02-14T06:28:13.353Z,39.90
2019-02-14T06:29:13.336Z,46.80
2019-02-14T06:30:13.329Z,43.90
2019-02-14T06:31:13.324Z,49.60
2019-02-14T06:32:13.331Z,52.20
2019-02-14T06:33:13.294Z,54.00
2019-02-14T06:34:13.288Z,50.10
2019-02-14T06:35:13.282Z,47.90
2019-02-14T06:36:13.274Z,41.00
2019-02-14T06:37:13.257Z,42.40
2019-02-14T06:38:13.243Z,48.40
2019-02-14T06:39:13.232Z,44.20
2019-02-14T06:40:13.234Z,45.30
2019-02-14T06:41:13.226Z,42.70
2019-02-14T06:42:13.204Z,41.20
2019-02-14T06:43:13.190Z,44.70
2019-02-14T06:44:13.175Z,42.30
2019-02-14T06:45:13.165Z,41.80
2019-02-14T06:46:13.165Z,45.10
2019-02-14T06:47:13.143Z,43.30
2019-02-14T06:48:13.132Z,38.00
2019-02-14T06:49:13.131Z,41.70
2019-02-14T06:50:13.111Z,38.40
2019-02-14T06:51:13.112Z,35.90
2019-02-14T06:52:13.087Z,43.80
2019-02-14T06:53:13.076Z,41.60
2019-02-14T06:54:13.068Z,40.90
2019-02-14T06:55:13.057Z,41.00
2019-02-14T06:56:13.057Z,46.30
2019-02-14T06:57:13.049Z,48.20
2019-02-14T06:58:13.024Z,46.60
2019-02-14T06:59:13.031Z,49.10
2019-02-14T07:00:13.006Z,43.70
2019-02-14T07:01:13.021Z,45.90
2019-02-14T07:02:12.985Z,44.60
2019-02-14T07:03:12.969Z,44.50
2019-02-14T07:04:12.959Z,41.40
2019-02-14T07:05:12.989Z,40.40
2019-02-14T07:06:12.938Z,44.70
2019-02-14T07:07:18.510Z,44.50
2019-02-14T07:08:13.913Z,40.40
2019-02-14T07:09:12.905Z,42.20
2019-02-14T07:10:12.900Z,39.10
2019-02-14T07:11:12.882Z,45.00
2019-02-14T07:12:12.946Z,41.30
2019-02-14T07:13:12.863Z,46.50
2019-02-14T07:14:13.259Z,40.20
2019-02-14T07:15:12.847Z,46.50
2019-02-14T07:16:12.837Z,41.80
2019-02-14T07:17:12.829Z,47.40
2019-02-14T07:18:12.806Z,42.20
2019-02-14T07:19:12.885Z,42.80
2019-02-14T07:20:12.793Z,40.60
2019-02-14T07:21:12.774Z,36.00
2019-02-14T07:22:12.781Z,44.70
2019-02-14T07:23:12.760Z,44.50
2019-02-14T07:24:12.743Z,40.30
2019-02-14T07:25:12.735Z,45.40
2019-02-14T07:26:12.752Z,40.00
2019-02-14T07:27:12.719Z,44.20
2019-02-14T07:28:12.696Z,47.80
2019-02-14T07:29:12.688Z,52.90
2019-02-14T07:30:12.673Z,52.30
2019-02-14T07:31:12.662Z,40.20
2019-02-14T07:32:12.665Z,39.90
2019-02-14T07:33:12.668Z,46.40
2019-02-14T07:34:12.631Z,40.30
2019-02-14T07:35:12.623Z,45.90
2019-02-14T07:36:12.611Z,40.80
2019-02-14T07:37:12.608Z,35.60
2019-02-14T07:38:12.590Z,36.80
2019-02-14T07:39:12.585Z,37.90
2019-02-14T07:40:12.579Z,37.20
2019-02-14T07:41:12.564Z,38.00
2019-02-14T07:42:12.560Z,37.60
2019-02-14T07:43:12.535Z,35.50
2019-02-14T07:44:12.524Z,35.80
2019-02-14T07:45:12.513Z,34.10
2019-02-14T07:46:12.502Z,37.60
2019-02-14T07:47:12.799Z,38.40
2019-02-14T07:48:12.481Z,38.50
2019-02-14T07:49:12.468Z,40.40
2019-02-14T07:50:12.466Z,39.00
2019-02-14T07:51:12.455Z,37.60
2019-02-14T07:52:12.445Z,36.70
2019-02-14T07:53:12.432Z,36.40
2019-02-14T07:54:12.416Z,37.80
2019-02-14T07:55:12.509Z,32.90
2019-02-14T07:56:12.402Z,34.30
2019-02-14T07:57:12.398Z,34.90
2019-02-14T07:58:12.375Z,31.60
2019-02-14T07:59:12.356Z,36.30
2019-02-14T08:00:12.369Z,37.10
2019-02-14T08:01:12.337Z,34.90
2019-02-14T08:02:12.337Z,34.50
2019-02-14T08:03:12.321Z,32.70
2019-02-14T08:04:12.304Z,38.20
2019-02-14T08:05:12.295Z,36.30
2019-02-14T08:06:12.300Z,33.60
2019-02-14T08:07:12.291Z,31.00
2019-02-14T08:08:12.258Z,34.30
2019-02-14T08:09:12.269Z,34.50
2019-02-14T08:10:12.239Z,33.20
2019-02-14T08:11:12.277Z,32.40
2019-02-14T08:12:12.275Z,34.80
2019-02-14T08:13:12.214Z,33.20
2019-02-14T08:14:12.211Z,37.10
2019-02-14T08:15:12.184Z,39.50
2019-02-14T08:16:12.228Z,34.50
2019-02-14T08:17:12.171Z,35.10
2019-02-14T08:18:12.162Z,36.20
2019-02-14T08:19:12.181Z,32.70
2019-02-14T08:20:12.130Z,32.80
2019-02-14T08:21:12.127Z,35.50
2019-02-14T08:22:12.144Z,34.70
2019-02-14T08:23:12.101Z,33.20
2019-02-14T08:24:12.085Z,35.30
2019-02-14T08:25:12.074Z,35.50
2019-02-14T08:26:12.067Z,36.60
2019-02-14T08:27:12.084Z,38.90
2019-02-14T08:28:12.040Z,32.00
2019-02-14T08:29:12.038Z,31.20
2019-02-14T08:30:12.026Z,33.40
2019-02-14T08:31:12.007Z,32.00
2019-02-14T08:32:12.020Z,29.70
2019-02-14T08:33:12.010Z,32.40
2019-02-14T08:34:11.972Z,30.70
2019-02-14T08:35:11.966Z,31.70
2019-02-14T08:36:11.989Z,32.40
2019-02-14T08:37:11.975Z,30.10
2019-02-14T08:38:11.950Z,29.70
2019-02-14T08:39:11.918Z,33.40
2019-02-14T08:40:11.907Z,27.00
2019-02-14T08:41:11.902Z,28.40
2019-02-14T08:42:11.890Z,30.70
2019-02-14T08:43:11.879Z,30.90
2019-02-14T08:44:11.903Z,34.50
2019-02-14T08:45:11.862Z,26.90
2019-02-14T08:46:11.869Z,30.80
2019-02-14T08:47:11.841Z,31.90
2019-02-14T08:48:11.844Z,31.00
2019-02-14T08:49:11.815Z,33.50
2019-02-14T08:50:11.802Z,28.90
2019-02-14T08:51:11.793Z,30.40
2019-02-14T08:52:11.780Z,29.50
2019-02-14T08:53:11.779Z,27.40
2019-02-14T08:54:11.761Z,27.50
2019-02-14T08:55:11.751Z,27.90
2019-02-14T08:56:11.736Z,24.70
2019-02-14T08:57:11.757Z,24.60
2019-02-14T08:58:11.727Z,24.90
2019-02-14T08:59:11.712Z,32.90
2019-02-14T09:00:11.697Z,23.50
2019-02-14T09:01:11.685Z,23.70
2019-02-14T09:02:11.671Z,31.30
2019-02-14T09:03:11.666Z,26.70
2019-02-14T09:04:11.662Z,26.50
2019-02-14T09:05:11.637Z,25.40
2019-02-14T09:06:11.630Z,30.00
2019-02-14T09:07:11.719Z,25.70
2019-02-14T09:08:11.609Z,26.70
2019-02-14T09:09:11.597Z,28.30
2019-02-14T09:10:11.584Z,24.50
2019-02-14T09:11:11.578Z,26.70
2019-02-14T09:12:11.576Z,25.80
2019-02-14T09:13:17.218Z,28.50
2019-02-14T09:14:12.547Z,28.40
2019-02-14T09:15:11.530Z,24.80
2019-02-14T09:16:11.518Z,21.30
2019-02-14T09:17:11.508Z,25.70
2019-02-14T09:18:11.510Z,29.50
2019-02-14T09:19:11.492Z,27.10
2019-02-14T09:20:11.477Z,23.40
2019-02-14T09:21:11.465Z,24.10
2019-02-14T09:22:11.474Z,28.10
2019-02-14T09:23:11.493Z,24.10
2019-02-14T09:24:11.435Z,27.40
2019-02-14T09:25:11.419Z,24.60
2019-02-14T09:26:11.425Z,27.10
2019-02-14T09:27:11.400Z,26.50
2019-02-14T09:28:11.403Z,24.90
2019-02-14T09:29:13.688Z,24.40
2019-02-14T09:30:11.370Z,27.30
2019-02-14T09:31:11.360Z,25.40
2019-02-14T09:32:11.348Z,27.20
2019-02-14T09:33:11.353Z,28.40
2019-02-14T09:34:11.328Z,29.40
2019-02-14T09:35:11.315Z,23.60
2019-02-14T09:36:11.298Z,26.40
2019-02-14T09:37:11.291Z,31.70
2019-02-14T09:38:11.300Z,27.70
2019-02-14T09:39:11.264Z,29.20
2019-02-14T09:40:11.264Z,32.70
2019-02-14T09:41:11.242Z,25.30
2019-02-14T09:42:11.230Z,27.90
2019-02-14T09:43:11.282Z,28.20
2019-02-14T09:44:11.213Z,26.30
2019-02-14T09:45:11.210Z,27.90
2019-02-14T09:46:11.201Z,23.60
2019-02-14T09:47:11.190Z,30.60
2019-02-14T09:48:11.180Z,25.20
2019-02-14T09:49:11.162Z,24.20
2019-02-14T09:50:11.160Z,21.50
2019-02-14T09:51:11.142Z,24.20
2019-02-14T09:52:11.127Z,23.10
2019-02-14T09:53:11.159Z,23.20
2019-02-14T09:54:11.105Z,24.40
2019-02-14T09:55:11.091Z,30.10
2019-02-14T09:56:11.079Z,32.40
2019-02-14T09:57:11.085Z,24.10
2019-02-14T09:58:11.066Z,23.50
2019-02-14T09:59:11.064Z,25.00
2019-02-14T10:00:11.130Z,21.90
2019-02-14T10:01:11.042Z,27.50
2019-02-14T10:02:11.028Z,27.90
2019-02-14T10:03:11.016Z,20.70
2019-02-14T10:04:11.002Z,20.30
2019-02-14T10:05:10.985Z,25.30
2019-02-14T10:06:10.971Z,21.70
2019-02-14T10:07:10.978Z,22.00
2019-02-14T10:08:13.138Z,21.70
2019-02-14T10:09:10.946Z,22.30
2019-02-14T10:10:10.939Z,20.90
2019-02-14T10:11:10.945Z,23.10
2019-02-14T10:12:10.916Z,20.90
2019-02-14T10:13:10.895Z,25.30
2019-02-14T10:14:10.899Z,24.40
2019-02-14T10:15:10.869Z,24.90
2019-02-14T10:16:10.865Z,22.20
2019-02-14T10:17:10.851Z,23.30
2019-02-14T10:18:10.836Z,24.30
2019-02-14T10:19:10.836Z,22.60
2019-02-14T10:20:10.815Z,22.00
2019-02-14T10:21:10.911Z,24.60
2019-02-14T10:22:10.794Z,21.40
2019-02-14T10:23:10.783Z,21.90
2019-02-14T10:24:10.780Z,21.70
2019-02-14T10:25:10.765Z,27.10
2019-02-14T10:26:10.747Z,28.10
2019-02-14T10:27:10.735Z,28.60
2019-02-14T10:28:10.725Z,28.90
2019-02-14T10:29:10.726Z,27.70
2019-02-14T10:30:10.773Z,26.40
2019-02-14T10:31:10.690Z,22.00
2019-02-14T10:32:10.690Z,23.50
2019-02-14T10:33:10.668Z,32.50
2019-02-14T10:34:10.669Z,25.70
2019-02-14T10:35:10.656Z,22.20
2019-02-14T10:36:10.637Z,27.30
2019-02-14T10:37:10.626Z,21.50
2019-02-14T10:38:10.615Z,24.50
2019-02-14T10:39:10.622Z,26.90
2019-02-14T10:40:10.599Z,21.90
2019-02-14T10:41:10.592Z,25.20
2019-02-14T10:42:10.579Z,28.80
2019-02-14T10:43:10.561Z,23.90
2019-02-14T10:44:10.611Z,25.10
2019-02-14T10:45:10.553Z,23.20
2019-02-14T10:46:10.530Z,23.40
2019-02-14T10:47:10.533Z,27.90
2019-02-14T10:48:10.515Z,22.70
2019-02-14T10:49:10.506Z,23.60
2019-02-14T10:50:10.488Z,23.90
2019-02-14T10:51:10.480Z,24.20
2019-02-14T10:52:10.475Z,25.80
2019-02-14T10:53:12.248Z,31.50
2019-02-14T10:54:10.460Z,31.00
2019-02-14T10:55:10.437Z,30.00
2019-02-14T10:56:10.422Z,30.90
2019-02-14T10:57:10.432Z,26.40
2019-02-14T10:58:10.420Z,27.30
2019-02-14T10:59:10.400Z,23.10
2019-02-14T11:00:10.383Z,23.30
2019-02-14T11:01:10.369Z,31.30
2019-02-14T11:02:10.362Z,27.20
2019-02-14T11:03:10.355Z,25.00
2019-02-14T11:04:10.349Z,26.20
2019-02-14T11:05:10.334Z,27.00
2019-02-14T11:06:10.316Z,25.80
2019-02-14T11:07:10.313Z,28.30
2019-02-14T11:08:10.301Z,23.70
2019-02-14T11:09:10.296Z,27.60
2019-02-14T11:10:10.277Z,24.60
2019-02-14T11:11:10.276Z,23.80
2019-02-14T11:12:10.254Z,23.30
2019-02-14T11:13:10.243Z,23.30
2019-02-14T11:14:10.245Z,22.40
2019-02-14T11:15:10.223Z,29.50
2019-02-14T11:16:10.216Z,28.10
2019-02-14T11:17:10.216Z,24.30
2019-02-14T11:18:10.195Z,24.60
2019-02-14T11:19:10.189Z,27.70
2019-02-14T11:20:10.168Z,24.70
2019-02-14T11:21:10.266Z,23.30
2019-02-14T11:22:10.151Z,23.70
2019-02-14T11:23:10.144Z,30.40
2019-02-14T11:24:10.194Z,24.70
2019-02-14T11:25:10.114Z,22.20
2019-02-14T11:26:10.107Z,19.60
2019-02-14T11:27:10.109Z,22.60
2019-02-14T11:28:10.087Z,21.70
2019-02-14T11:29:10.084Z,20.80
2019-02-14T11:30:10.063Z,21.60
2019-02-14T11:31:10.061Z,22.10
2019-02-14T11:32:10.052Z,24.20
2019-02-14T11:33:10.038Z,23.20
2019-02-14T11:34:10.039Z,25.30
2019-02-14T11:35:10.011Z,25.20
2019-02-14T11:36:10.007Z,28.50
2019-02-14T11:37:09.993Z,24.80
2019-02-14T11:38:09.982Z,22.30
2019-02-14T11:39:09.985Z,23.00
2019-02-14T11:40:09.962Z,18.80
2019-02-14T11:41:09.955Z,20.80
2019-02-14T11:42:09.944Z,24.70
2019-02-14T11:43:09.930Z,20.50
2019-02-14T11:44:10.077Z,29.40
2019-02-14T11:45:09.940Z,20.40
2019-02-14T11:46:09.898Z,21.60
2019-02-14T11:47:09.891Z,20.50
2019-02-14T11:48:09.882Z,24.70
2019-02-14T11:49:09.892Z,22.50
2019-02-14T11:50:09.862Z,18.90
2019-02-14T11:51:09.855Z,19.10
2019-02-14T11:52:09.837Z,22.40
2019-02-14T11:53:14.288Z,22.50
2019-02-14T11:54:09.821Z,18.50
2019-02-14T11:55:09.812Z,20.40
2019-02-14T11:56:10.119Z,19.10
2019-02-14T11:57:09.797Z,16.70
2019-02-14T11:58:09.780Z,20.10
2019-02-14T11:59:09.770Z,19.10
2019-02-14T12:00:09.763Z,19.90
2019-02-14T12:01:09.747Z,24.60
2019-02-14T12:02:09.759Z,24.10
2019-02-14T12:03:09.727Z,21.50
2019-02-14T12:04:09.720Z,22.20
2019-02-14T12:05:09.721Z,26.20
2019-02-14T12:06:09.695Z,20.60
2019-02-14T12:07:09.689Z,19.60
2019-02-14T12:08:09.750Z,22.60
2019-02-14T12:09:09.727Z,19.90
2019-02-14T12:10:13.366Z,20.60
2019-02-14T12:11:09.648Z,22.20
2019-02-14T12:12:09.662Z,20.30
2019-02-14T12:13:09.630Z,23.40
2019-02-14T12:14:09.622Z,20.30
2019-02-14T12:15:09.617Z,26.30
2019-02-14T12:16:09.643Z,27.80
2019-02-14T12:17:09.594Z,23.80
2019-02-14T12:18:09.574Z,24.20
2019-02-14T12:19:09.562Z,26.10
2019-02-14T12:20:12.389Z,25.00
2019-02-14T12:21:09.544Z,29.60
2019-02-14T12:22:09.529Z,24.80
2019-02-14T12:23:09.524Z,28.00
2019-02-14T12:24:09.510Z,21.20
2019-02-14T12:25:09.509Z,22.80
2019-02-14T12:26:09.492Z,29.40
2019-02-14T12:27:09.496Z,24.90
2019-02-14T12:28:09.485Z,22.90
2019-02-14T12:29:09.456Z,23.90
2019-02-14T12:30:09.457Z,23.10
2019-02-14T12:31:09.437Z,22.00
2019-02-14T12:32:09.432Z,22.20
2019-02-14T12:33:09.414Z,24.70
2019-02-14T12:34:09.401Z,26.00
2019-02-14T12:35:09.406Z,24.00
2019-02-14T12:36:09.411Z,27.10
2019-02-14T12:37:09.368Z,26.70
2019-02-14T12:38:09.434Z,24.20
2019-02-14T12:39:11.540Z,25.30
2019-02-14T12:40:09.347Z,25.30
2019-02-14T12:41:09.328Z,21.70
2019-02-14T12:42:09.314Z,25.10
2019-02-14T12:43:09.316Z,21.30
2019-02-14T12:44:09.305Z,25.60
2019-02-14T12:45:09.383Z,27.80
2019-02-14T12:46:09.297Z,25.90
2019-02-14T12:47:09.263Z,26.20
2019-02-14T12:48:09.254Z,25.30
2019-02-14T12:49:09.247Z,25.10
2019-02-14T12:50:09.241Z,24.80
2019-02-14T12:51:09.224Z,24.30
2019-02-14T12:52:09.233Z,25.20